sensor_id;sensor_type;location;lat;lon;timestamp;temperature;humidity
6146;DHT22;3104;50.348;7.620;2023-05-10T00:01:07;13.60;99.90
6146;DHT22;3104;50.348;7.620;2023-05-10T00:03:33;13.50;99.90
6146;DHT22;3104;50.348;7.620;2023-05-10T00:05:58;13.60;99.90
6146;DHT22;3104;50.348;7.620;2023-05-10T00:08:24;13.50;99.90
6146;DHT22;3104;50.348;7.620;2023-05-10T00:10:49;13.60;99.90
6146;DHT22;3104;50.348;7.620;2023-05-10T00:13:15;13.60;99.90
6146;DHT22;3104;50.348;7.620;2023-05-10T00:15:40;13.70;99.90
6146;DHT22;3104;50.348;7.620;2023-05-10T00:18:06;13.60;99.90
6146;DHT22;3104;50.348;7.620;2023-05-10T00:20:32;13.70;99.90
6146;DHT22;3104;50.348;7.620;2023-05-10T00:22:57;13.60;99.90
6146;DHT22;3104;50.348;7.620;2023-05-10T00:25:23;13.50;99.90
6146;DHT22;3104;50.348;7.620;2023-05-10T00:27:48;13.50;99.90
6146;DHT22;3104;50.348;7.620;2023-05-10T00:30:15;13.50;99.90
6146;DHT22;3104;50.348;7.620;2023-05-10T00:32:40;13.60;99.90
6146;DHT22;3104;50.348;7.620;2023-05-10T00:35:06;13.50;99.90
6146;DHT22;3104;50.348;7.620;2023-05-10T00:37:32;13.50;99.90
6146;DHT22;3104;50.348;7.620;2023-05-10T00:39:58;13.50;99.90
6146;DHT22;3104;50.348;7.620;2023-05-10T00:42:24;13.40;99.90
6146;DHT22;3104;50.348;7.620;2023-05-10T00:44:49;13.50;99.90
6146;DHT22;3104;50.348;7.620;2023-05-10T00:47:16;13.40;99.90
6146;DHT22;3104;50.348;7.620;2023-05-10T00:49:42;13.30;99.90
6146;DHT22;3104;50.348;7.620;2023-05-10T00:52:09;13.40;99.90
6146;DHT22;3104;50.348;7.620;2023-05-10T00:54:35;13.40;99.90
6146;DHT22;3104;50.348;7.620;2023-05-10T00:57:00;13.40;99.90
6146;DHT22;3104;50.348;7.620;2023-05-10T00:59:26;13.40;99.90
6146;DHT22;3104;50.348;7.620;2023-05-10T01:01:53;13.30;99.90
6146;DHT22;3104;50.348;7.620;2023-05-10T01:04:18;13.40;99.90
6146;DHT22;3104;50.348;7.620;2023-05-10T01:06:47;13.40;99.90
6146;DHT22;3104;50.348;7.620;2023-05-10T01:09:12;13.30;99.90
6146;DHT22;3104;50.348;7.620;2023-05-10T01:11:38;13.20;99.90
6146;DHT22;3104;50.348;7.620;2023-05-10T01:14:05;13.20;99.90
6146;DHT22;3104;50.348;7.620;2023-05-10T01:16:34;13.20;99.90
6146;DHT22;3104;50.348;7.620;2023-05-10T01:19:01;13.30;99.90
6146;DHT22;3104;50.348;7.620;2023-05-10T01:21:52;13.30;99.90
6146;DHT22;3104;50.348;7.620;2023-05-10T01:24:38;13.30;99.90
6146;DHT22;3104;50.348;7.620;2023-05-10T01:27:37;13.20;99.90
6146;DHT22;3104;50.348;7.620;2023-05-10T01:33:15;13.20;99.90
6146;DHT22;3104;50.348;7.620;2023-05-10T01:36:10;13.20;99.90
6146;DHT22;3104;50.348;7.620;2023-05-10T01:43:46;13.20;99.90
6146;DHT22;3104;50.348;7.620;2023-05-10T01:46:24;13.20;99.90
6146;DHT22;3104;50.348;7.620;2023-05-10T01:48:55;13.30;99.90
6146;DHT22;3104;50.348;7.620;2023-05-10T01:51:26;13.40;99.90
6146;DHT22;3104;50.348;7.620;2023-05-10T01:54:01;13.40;99.90
6146;DHT22;3104;50.348;7.620;2023-05-10T01:56:29;13.40;99.90
6146;DHT22;3104;50.348;7.620;2023-05-10T01:58:56;13.30;99.90
6146;DHT22;3104;50.348;7.620;2023-05-10T02:01:22;13.30;99.90
6146;DHT22;3104;50.348;7.620;2023-05-10T02:03:51;13.30;99.90
6146;DHT22;3104;50.348;7.620;2023-05-10T02:06:20;13.30;99.90
6146;DHT22;3104;50.348;7.620;2023-05-10T02:08:47;13.20;99.90
6146;DHT22;3104;50.348;7.620;2023-05-10T02:11:14;13.30;99.90
6146;DHT22;3104;50.348;7.620;2023-05-10T02:13:41;13.40;99.90
6146;DHT22;3104;50.348;7.620;2023-05-10T02:16:07;13.30;99.90
6146;DHT22;3104;50.348;7.620;2023-05-10T02:18:34;13.20;99.90
6146;DHT22;3104;50.348;7.620;2023-05-10T02:21:02;13.10;99.90
6146;DHT22;3104;50.348;7.620;2023-05-10T02:23:29;13.20;99.90
6146;DHT22;3104;50.348;7.620;2023-05-10T02:25:57;13.30;99.90
6146;DHT22;3104;50.348;7.620;2023-05-10T02:28:24;13.30;99.90
6146;DHT22;3104;50.348;7.620;2023-05-10T02:30:51;13.30;99.90
6146;DHT22;3104;50.348;7.620;2023-05-10T02:33:17;13.40;99.90
6146;DHT22;3104;50.348;7.620;2023-05-10T02:35:43;13.40;99.90
6146;DHT22;3104;50.348;7.620;2023-05-10T02:38:10;13.50;99.90
6146;DHT22;3104;50.348;7.620;2023-05-10T02:40:37;13.70;99.90
6146;DHT22;3104;50.348;7.620;2023-05-10T02:43:04;13.50;99.90
6146;DHT22;3104;50.348;7.620;2023-05-10T02:45:32;13.40;99.90
6146;DHT22;3104;50.348;7.620;2023-05-10T02:47:59;13.50;99.90
6146;DHT22;3104;50.348;7.620;2023-05-10T02:50:30;13.60;99.90
6146;DHT22;3104;50.348;7.620;2023-05-10T02:53:01;13.50;99.90
6146;DHT22;3104;50.348;7.620;2023-05-10T02:55:33;13.40;99.90
6146;DHT22;3104;50.348;7.620;2023-05-10T02:58:01;13.40;99.90
6146;DHT22;3104;50.348;7.620;2023-05-10T03:00:27;13.50;99.90
6146;DHT22;3104;50.348;7.620;2023-05-10T03:02:53;13.40;99.90
6146;DHT22;3104;50.348;7.620;2023-05-10T03:05:19;13.40;99.90
6146;DHT22;3104;50.348;7.620;2023-05-10T03:07:45;13.50;99.90
6146;DHT22;3104;50.348;7.620;2023-05-10T03:10:11;13.40;99.90
6146;DHT22;3104;50.348;7.620;2023-05-10T03:15:38;13.30;99.90
6146;DHT22;3104;50.348;7.620;2023-05-10T03:18:15;13.30;99.90
6146;DHT22;3104;50.348;7.620;2023-05-10T03:20:46;13.30;99.90
6146;DHT22;3104;50.348;7.620;2023-05-10T03:23:21;13.40;99.90
6146;DHT22;3104;50.348;7.620;2023-05-10T03:25:48;13.30;99.90
6146;DHT22;3104;50.348;7.620;2023-05-10T03:28:15;13.40;99.90
6146;DHT22;3104;50.348;7.620;2023-05-10T03:30:42;13.50;99.90
6146;DHT22;3104;50.348;7.620;2023-05-10T03:33:08;13.50;99.90
6146;DHT22;3104;50.348;7.620;2023-05-10T03:35:34;13.30;99.90
6146;DHT22;3104;50.348;7.620;2023-05-10T03:38:00;13.40;99.90
6146;DHT22;3104;50.348;7.620;2023-05-10T03:40:26;13.40;99.90
6146;DHT22;3104;50.348;7.620;2023-05-10T03:42:54;13.30;99.90
6146;DHT22;3104;50.348;7.620;2023-05-10T03:45:20;13.20;99.90
6146;DHT22;3104;50.348;7.620;2023-05-10T03:47:45;13.10;99.90
6146;DHT22;3104;50.348;7.620;2023-05-10T03:50:11;13.10;99.90
6146;DHT22;3104;50.348;7.620;2023-05-10T03:52:36;13.20;99.90
6146;DHT22;3104;50.348;7.620;2023-05-10T03:55:04;13.30;99.90
6146;DHT22;3104;50.348;7.620;2023-05-10T03:57:30;13.30;99.90
6146;DHT22;3104;50.348;7.620;2023-05-10T03:59:56;13.40;99.90
6146;DHT22;3104;50.348;7.620;2023-05-10T04:02:21;13.30;99.90
6146;DHT22;3104;50.348;7.620;2023-05-10T04:04:47;13.40;99.90
6146;DHT22;3104;50.348;7.620;2023-05-10T04:07:13;13.40;99.90
6146;DHT22;3104;50.348;7.620;2023-05-10T04:09:39;13.40;99.90
6146;DHT22;3104;50.348;7.620;2023-05-10T04:12:05;13.40;99.90
6146;DHT22;3104;50.348;7.620;2023-05-10T04:14:30;13.40;99.90
6146;DHT22;3104;50.348;7.620;2023-05-10T04:16:56;13.50;99.90
6146;DHT22;3104;50.348;7.620;2023-05-10T04:19:21;13.30;99.90
6146;DHT22;3104;50.348;7.620;2023-05-10T04:21:48;13.40;99.90
6146;DHT22;3104;50.348;7.620;2023-05-10T04:24:13;13.40;99.90
6146;DHT22;3104;50.348;7.620;2023-05-10T04:26:39;13.30;99.90
6146;DHT22;3104;50.348;7.620;2023-05-10T04:29:04;13.40;99.90
6146;DHT22;3104;50.348;7.620;2023-05-10T04:31:30;13.40;99.90
6146;DHT22;3104;50.348;7.620;2023-05-10T04:33:55;13.50;99.90
6146;DHT22;3104;50.348;7.620;2023-05-10T04:36:21;13.40;99.90
6146;DHT22;3104;50.348;7.620;2023-05-10T04:38:46;13.50;99.90
6146;DHT22;3104;50.348;7.620;2023-05-10T04:41:12;13.50;99.90
6146;DHT22;3104;50.348;7.620;2023-05-10T04:43:38;13.40;99.90
6146;DHT22;3104;50.348;7.620;2023-05-10T04:46:04;13.50;99.90
6146;DHT22;3104;50.348;7.620;2023-05-10T04:48:30;13.50;99.90
6146;DHT22;3104;50.348;7.620;2023-05-10T04:50:55;13.50;99.90
6146;DHT22;3104;50.348;7.620;2023-05-10T04:53:22;13.50;99.90
6146;DHT22;3104;50.348;7.620;2023-05-10T04:55:47;13.50;99.90
6146;DHT22;3104;50.348;7.620;2023-05-10T04:58:13;13.40;99.90
6146;DHT22;3104;50.348;7.620;2023-05-10T05:00:39;13.40;99.90
6146;DHT22;3104;50.348;7.620;2023-05-10T05:03:04;13.40;99.90
6146;DHT22;3104;50.348;7.620;2023-05-10T05:05:30;13.40;99.90
6146;DHT22;3104;50.348;7.620;2023-05-10T05:07:57;13.50;99.90
6146;DHT22;3104;50.348;7.620;2023-05-10T05:10:22;13.50;99.90
6146;DHT22;3104;50.348;7.620;2023-05-10T05:12:48;13.50;99.90
6146;DHT22;3104;50.348;7.620;2023-05-10T05:15:13;13.50;99.90
6146;DHT22;3104;50.348;7.620;2023-05-10T05:17:40;13.50;99.90
6146;DHT22;3104;50.348;7.620;2023-05-10T05:20:06;13.40;99.90
6146;DHT22;3104;50.348;7.620;2023-05-10T05:22:32;13.50;99.90
6146;DHT22;3104;50.348;7.620;2023-05-10T05:24:58;13.50;99.90
6146;DHT22;3104;50.348;7.620;2023-05-10T05:27:24;13.50;99.90
6146;DHT22;3104;50.348;7.620;2023-05-10T05:29:54;13.50;99.90
6146;DHT22;3104;50.348;7.620;2023-05-10T05:32:20;13.60;99.90
6146;DHT22;3104;50.348;7.620;2023-05-10T05:34:46;13.70;99.90
6146;DHT22;3104;50.348;7.620;2023-05-10T05:37:16;13.70;99.90
6146;DHT22;3104;50.348;7.620;2023-05-10T05:39:42;13.80;99.90
6146;DHT22;3104;50.348;7.620;2023-05-10T05:42:09;13.70;99.90
6146;DHT22;3104;50.348;7.620;2023-05-10T05:44:34;13.80;99.90
6146;DHT22;3104;50.348;7.620;2023-05-10T05:47:00;13.90;99.90
6146;DHT22;3104;50.348;7.620;2023-05-10T05:49:26;13.90;99.90
6146;DHT22;3104;50.348;7.620;2023-05-10T05:51:51;14.00;99.90
6146;DHT22;3104;50.348;7.620;2023-05-10T05:54:17;13.90;99.90
6146;DHT22;3104;50.348;7.620;2023-05-10T05:56:42;14.00;99.90
6146;DHT22;3104;50.348;7.620;2023-05-10T05:59:10;14.10;99.90
6146;DHT22;3104;50.348;7.620;2023-05-10T06:01:35;14.10;99.90
6146;DHT22;3104;50.348;7.620;2023-05-10T06:04:01;14.10;99.90
6146;DHT22;3104;50.348;7.620;2023-05-10T06:06:26;14.00;99.90
6146;DHT22;3104;50.348;7.620;2023-05-10T06:08:53;14.10;99.90
6146;DHT22;3104;50.348;7.620;2023-05-10T06:11:18;14.20;99.90
6146;DHT22;3104;50.348;7.620;2023-05-10T06:13:44;14.20;99.90
6146;DHT22;3104;50.348;7.620;2023-05-10T06:16:09;14.20;99.90
6146;DHT22;3104;50.348;7.620;2023-05-10T06:18:35;14.20;99.90
6146;DHT22;3104;50.348;7.620;2023-05-10T06:21:01;14.10;99.90
6146;DHT22;3104;50.348;7.620;2023-05-10T06:23:27;14.20;99.90
6146;DHT22;3104;50.348;7.620;2023-05-10T06:25:52;14.10;99.90
6146;DHT22;3104;50.348;7.620;2023-05-10T06:28:18;14.20;99.90
6146;DHT22;3104;50.348;7.620;2023-05-10T06:30:43;14.30;99.90
6146;DHT22;3104;50.348;7.620;2023-05-10T06:33:09;14.40;99.90
6146;DHT22;3104;50.348;7.620;2023-05-10T06:35:35;14.40;99.90
6146;DHT22;3104;50.348;7.620;2023-05-10T06:38:02;14.40;99.90
6146;DHT22;3104;50.348;7.620;2023-05-10T06:40:27;14.50;99.90
6146;DHT22;3104;50.348;7.620;2023-05-10T06:42:53;14.70;99.90
6146;DHT22;3104;50.348;7.620;2023-05-10T06:45:18;14.30;99.90
6146;DHT22;3104;50.348;7.620;2023-05-10T06:47:44;14.30;99.90
6146;DHT22;3104;50.348;7.620;2023-05-10T06:50:10;14.30;99.90
6146;DHT22;3104;50.348;7.620;2023-05-10T06:52:36;14.40;99.90
6146;DHT22;3104;50.348;7.620;2023-05-10T06:55:03;14.30;99.90
6146;DHT22;3104;50.348;7.620;2023-05-10T06:57:29;14.40;99.90
6146;DHT22;3104;50.348;7.620;2023-05-10T06:59:54;14.20;99.90
6146;DHT22;3104;50.348;7.620;2023-05-10T07:02:21;14.10;99.90
6146;DHT22;3104;50.348;7.620;2023-05-10T07:04:47;14.20;99.90
6146;DHT22;3104;50.348;7.620;2023-05-10T07:07:14;14.20;99.90
6146;DHT22;3104;50.348;7.620;2023-05-10T07:09:39;14.30;99.90
6146;DHT22;3104;50.348;7.620;2023-05-10T07:12:05;14.30;99.90
6146;DHT22;3104;50.348;7.620;2023-05-10T07:14:30;14.30;99.90
6146;DHT22;3104;50.348;7.620;2023-05-10T07:16:56;14.30;99.90
6146;DHT22;3104;50.348;7.620;2023-05-10T07:19:22;14.40;99.90
6146;DHT22;3104;50.348;7.620;2023-05-10T07:21:47;14.30;99.90
6146;DHT22;3104;50.348;7.620;2023-05-10T07:24:13;14.40;99.90
6146;DHT22;3104;50.348;7.620;2023-05-10T07:26:39;14.40;99.90
6146;DHT22;3104;50.348;7.620;2023-05-10T07:29:04;14.40;99.90
6146;DHT22;3104;50.348;7.620;2023-05-10T07:31:30;14.50;99.90
6146;DHT22;3104;50.348;7.620;2023-05-10T07:33:56;14.50;99.90
6146;DHT22;3104;50.348;7.620;2023-05-10T07:36:21;14.40;99.90
6146;DHT22;3104;50.348;7.620;2023-05-10T07:38:47;14.30;99.90
6146;DHT22;3104;50.348;7.620;2023-05-10T07:41:12;14.40;99.90
6146;DHT22;3104;50.348;7.620;2023-05-10T07:43:38;14.30;99.90
6146;DHT22;3104;50.348;7.620;2023-05-10T07:46:04;14.20;99.90
6146;DHT22;3104;50.348;7.620;2023-05-10T07:48:30;14.30;99.90
6146;DHT22;3104;50.348;7.620;2023-05-10T07:50:56;14.40;99.90
6146;DHT22;3104;50.348;7.620;2023-05-10T07:53:22;14.30;99.90
6146;DHT22;3104;50.348;7.620;2023-05-10T07:55:51;14.40;99.90
6146;DHT22;3104;50.348;7.620;2023-05-10T07:58:17;14.30;99.90
6146;DHT22;3104;50.348;7.620;2023-05-10T08:00:42;14.50;99.90
6146;DHT22;3104;50.348;7.620;2023-05-10T08:03:08;14.50;99.90
6146;DHT22;3104;50.348;7.620;2023-05-10T08:05:33;14.50;99.90
6146;DHT22;3104;50.348;7.620;2023-05-10T08:07:59;14.40;99.90
6146;DHT22;3104;50.348;7.620;2023-05-10T08:10:25;14.40;99.90
6146;DHT22;3104;50.348;7.620;2023-05-10T08:12:51;14.50;99.90
6146;DHT22;3104;50.348;7.620;2023-05-10T08:15:16;14.50;99.90
6146;DHT22;3104;50.348;7.620;2023-05-10T08:17:42;14.50;99.90
6146;DHT22;3104;50.348;7.620;2023-05-10T08:20:08;14.50;99.90
6146;DHT22;3104;50.348;7.620;2023-05-10T08:22:34;14.60;99.90
6146;DHT22;3104;50.348;7.620;2023-05-10T08:25:00;14.60;99.90
6146;DHT22;3104;50.348;7.620;2023-05-10T08:27:25;14.60;99.90
6146;DHT22;3104;50.348;7.620;2023-05-10T08:29:51;14.80;99.90
6146;DHT22;3104;50.348;7.620;2023-05-10T08:32:17;14.80;99.90
6146;DHT22;3104;50.348;7.620;2023-05-10T08:34:43;14.90;99.90
6146;DHT22;3104;50.348;7.620;2023-05-10T08:37:08;14.90;99.90
6146;DHT22;3104;50.348;7.620;2023-05-10T08:39:35;14.90;99.90
6146;DHT22;3104;50.348;7.620;2023-05-10T08:42:03;14.90;99.90
6146;DHT22;3104;50.348;7.620;2023-05-10T08:44:32;15.00;99.90
6146;DHT22;3104;50.348;7.620;2023-05-10T08:46:59;15.10;99.90
6146;DHT22;3104;50.348;7.620;2023-05-10T08:49:27;15.00;99.90
6146;DHT22;3104;50.348;7.620;2023-05-10T08:51:57;15.10;99.90
6146;DHT22;3104;50.348;7.620;2023-05-10T08:54:25;15.10;99.90
6146;DHT22;3104;50.348;7.620;2023-05-10T08:56:50;15.10;99.90
6146;DHT22;3104;50.348;7.620;2023-05-10T08:59:17;15.20;99.90
6146;DHT22;3104;50.348;7.620;2023-05-10T09:01:45;15.20;99.90
6146;DHT22;3104;50.348;7.620;2023-05-10T09:04:13;15.10;99.90
6146;DHT22;3104;50.348;7.620;2023-05-10T09:06:39;15.10;99.90
6146;DHT22;3104;50.348;7.620;2023-05-10T09:09:05;15.10;99.90
6146;DHT22;3104;50.348;7.620;2023-05-10T09:11:30;15.10;99.90
6146;DHT22;3104;50.348;7.620;2023-05-10T09:13:56;15.10;99.90
6146;DHT22;3104;50.348;7.620;2023-05-10T09:16:23;15.00;99.90
6146;DHT22;3104;50.348;7.620;2023-05-10T09:18:49;14.90;99.90
6146;DHT22;3104;50.348;7.620;2023-05-10T09:21:15;14.60;99.90
6146;DHT22;3104;50.348;7.620;2023-05-10T09:23:44;14.50;99.90
6146;DHT22;3104;50.348;7.620;2023-05-10T09:26:12;14.60;99.90
6146;DHT22;3104;50.348;7.620;2023-05-10T09:28:51;14.60;99.90
6146;DHT22;3104;50.348;7.620;2023-05-10T09:31:18;14.70;99.90
6146;DHT22;3104;50.348;7.620;2023-05-10T09:33:44;14.70;99.90
6146;DHT22;3104;50.348;7.620;2023-05-10T09:36:11;14.70;67.80
6146;DHT22;3104;50.348;7.620;2023-05-10T09:38:51;14.80;18.40
6146;DHT22;3104;50.348;7.620;2023-05-10T09:41:23;14.80;1.00
6146;DHT22;3104;50.348;7.620;2023-05-10T09:43:49;14.90;1.00
6146;DHT22;3104;50.348;7.620;2023-05-10T09:46:15;15.10;58.00
6146;DHT22;3104;50.348;7.620;2023-05-10T09:48:48;15.20;1.00
6146;DHT22;3104;50.348;7.620;2023-05-10T09:51:20;15.20;1.00
6146;DHT22;3104;50.348;7.620;2023-05-10T09:53:47;15.20;1.00
6146;DHT22;3104;50.348;7.620;2023-05-10T09:56:12;15.20;1.00
6146;DHT22;3104;50.348;7.620;2023-05-10T09:58:39;15.30;1.00
6146;DHT22;3104;50.348;7.620;2023-05-10T10:01:05;15.30;1.00
6146;DHT22;3104;50.348;7.620;2023-05-10T10:03:42;15.20;1.00
6146;DHT22;3104;50.348;7.620;2023-05-10T10:06:08;15.10;1.00
6146;DHT22;3104;50.348;7.620;2023-05-10T10:08:34;15.10;1.00
6146;DHT22;3104;50.348;7.620;2023-05-10T10:11:00;15.20;1.00
6146;DHT22;3104;50.348;7.620;2023-05-10T10:13:26;15.40;1.00
6146;DHT22;3104;50.348;7.620;2023-05-10T10:15:52;15.60;1.00
6146;DHT22;3104;50.348;7.620;2023-05-10T10:18:19;15.60;1.00
6146;DHT22;3104;50.348;7.620;2023-05-10T10:20:49;15.80;1.00
6146;DHT22;3104;50.348;7.620;2023-05-10T10:23:15;16.10;1.00
6146;DHT22;3104;50.348;7.620;2023-05-10T10:25:40;16.00;1.00
6146;DHT22;3104;50.348;7.620;2023-05-10T10:28:18;16.10;99.90
6146;DHT22;3104;50.348;7.620;2023-05-10T10:30:51;16.10;34.50
6146;DHT22;3104;50.348;7.620;2023-05-10T10:36:01;16.00;1.00
6146;DHT22;3104;50.348;7.620;2023-05-10T10:47:43;16.00;1.00
6146;DHT22;3104;50.348;7.620;2023-05-10T10:49:53;16.10;1.00
6146;DHT22;3104;50.348;7.620;2023-05-10T11:00:28;16.30;1.00
6146;DHT22;3104;50.348;7.620;2023-05-10T11:07:58;16.40;1.00
6146;DHT22;3104;50.348;7.620;2023-05-10T11:10:25;16.40;1.00
6146;DHT22;3104;50.348;7.620;2023-05-10T11:13:11;16.60;1.00
6146;DHT22;3104;50.348;7.620;2023-05-10T11:15:38;16.50;1.00
6146;DHT22;3104;50.348;7.620;2023-05-10T11:18:28;16.60;1.00
6146;DHT22;3104;50.348;7.620;2023-05-10T11:21:01;17.00;1.00
6146;DHT22;3104;50.348;7.620;2023-05-10T11:23:54;16.90;1.00
6146;DHT22;3104;50.348;7.620;2023-05-10T11:26:25;16.80;13.40
6146;DHT22;3104;50.348;7.620;2023-05-10T11:28:53;17.00;1.00
6146;DHT22;3104;50.348;7.620;2023-05-10T11:31:21;17.20;1.00
6146;DHT22;3104;50.348;7.620;2023-05-10T11:36:20;17.50;1.00
6146;DHT22;3104;50.348;7.620;2023-05-10T11:38:47;17.10;1.00
6146;DHT22;3104;50.348;7.620;2023-05-10T11:41:13;17.10;1.00
6146;DHT22;3104;50.348;7.620;2023-05-10T11:43:39;17.40;1.00
6146;DHT22;3104;50.348;7.620;2023-05-10T11:46:10;17.40;59.50
6146;DHT22;3104;50.348;7.620;2023-05-10T11:48:38;17.50;1.00
6146;DHT22;3104;50.348;7.620;2023-05-10T11:51:03;17.80;99.90
6146;DHT22;3104;50.348;7.620;2023-05-10T11:53:30;17.80;95.60
6146;DHT22;3104;50.348;7.620;2023-05-10T11:56:03;17.70;99.90
6146;DHT22;3104;50.348;7.620;2023-05-10T11:58:30;17.80;99.90
6146;DHT22;3104;50.348;7.620;2023-05-10T12:00:55;17.70;1.00
6146;DHT22;3104;50.348;7.620;2023-05-10T12:03:21;17.60;99.90
6146;DHT22;3104;50.348;7.620;2023-05-10T12:05:47;17.40;99.90
6146;DHT22;3104;50.348;7.620;2023-05-10T12:08:21;17.00;99.90
6146;DHT22;3104;50.348;7.620;2023-05-10T12:10:47;17.00;99.90
6146;DHT22;3104;50.348;7.620;2023-05-10T12:13:14;17.00;99.90
6146;DHT22;3104;50.348;7.620;2023-05-10T12:15:41;17.00;1.00
6146;DHT22;3104;50.348;7.620;2023-05-10T12:18:11;16.90;99.90
6146;DHT22;3104;50.348;7.620;2023-05-10T12:20:37;16.50;1.00
6146;DHT22;3104;50.348;7.620;2023-05-10T12:23:03;16.50;99.90
6146;DHT22;3104;50.348;7.620;2023-05-10T12:25:37;16.70;99.90
6146;DHT22;3104;50.348;7.620;2023-05-10T12:28:04;16.60;1.00
6146;DHT22;3104;50.348;7.620;2023-05-10T12:30:32;16.70;1.00
6146;DHT22;3104;50.348;7.620;2023-05-10T12:33:17;16.80;99.90
6146;DHT22;3104;50.348;7.620;2023-05-10T12:35:51;17.00;1.00
6146;DHT22;3104;50.348;7.620;2023-05-10T12:40:52;17.00;1.00
6146;DHT22;3104;50.348;7.620;2023-05-10T12:43:17;17.10;99.90
6146;DHT22;3104;50.348;7.620;2023-05-10T12:45:43;17.10;99.90
6146;DHT22;3104;50.348;7.620;2023-05-10T12:48:13;17.20;99.90
6146;DHT22;3104;50.348;7.620;2023-05-10T12:50:38;17.40;99.90
6146;DHT22;3104;50.348;7.620;2023-05-10T12:53:04;17.30;99.90
6146;DHT22;3104;50.348;7.620;2023-05-10T12:55:30;17.00;1.00
6146;DHT22;3104;50.348;7.620;2023-05-10T12:57:55;16.70;55.00
6146;DHT22;3104;50.348;7.620;2023-05-10T13:00:21;17.00;1.00
6146;DHT22;3104;50.348;7.620;2023-05-10T13:02:46;17.40;1.00
6146;DHT22;3104;50.348;7.620;2023-05-10T13:05:12;17.50;1.00
6146;DHT22;3104;50.348;7.620;2023-05-10T13:07:38;17.00;99.90
6146;DHT22;3104;50.348;7.620;2023-05-10T13:10:05;16.80;99.90
6146;DHT22;3104;50.348;7.620;2023-05-10T13:12:31;16.20;1.00
6146;DHT22;3104;50.348;7.620;2023-05-10T13:14:57;16.00;8.10
6146;DHT22;3104;50.348;7.620;2023-05-10T13:17:22;15.90;1.00
6146;DHT22;3104;50.348;7.620;2023-05-10T13:19:48;15.80;1.00
6146;DHT22;3104;50.348;7.620;2023-05-10T13:22:14;15.90;99.90
6146;DHT22;3104;50.348;7.620;2023-05-10T13:24:39;15.90;99.90
6146;DHT22;3104;50.348;7.620;2023-05-10T13:27:05;15.70;1.00
6146;DHT22;3104;50.348;7.620;2023-05-10T13:29:31;15.60;1.00
6146;DHT22;3104;50.348;7.620;2023-05-10T13:31:57;15.60;99.90
6146;DHT22;3104;50.348;7.620;2023-05-10T13:34:22;15.50;99.90
6146;DHT22;3104;50.348;7.620;2023-05-10T13:36:49;15.60;99.90
6146;DHT22;3104;50.348;7.620;2023-05-10T13:39:15;15.80;1.00
6146;DHT22;3104;50.348;7.620;2023-05-10T13:41:40;16.00;99.90
6146;DHT22;3104;50.348;7.620;2023-05-10T13:44:06;16.10;99.90
6146;DHT22;3104;50.348;7.620;2023-05-10T13:46:31;16.10;1.00
6146;DHT22;3104;50.348;7.620;2023-05-10T13:48:57;16.10;38.70
6146;DHT22;3104;50.348;7.620;2023-05-10T13:51:23;16.40;1.00
6146;DHT22;3104;50.348;7.620;2023-05-10T13:53:48;16.50;1.00
6146;DHT22;3104;50.348;7.620;2023-05-10T13:56:14;17.00;1.00
6146;DHT22;3104;50.348;7.620;2023-05-10T13:58:40;17.30;1.00
6146;DHT22;3104;50.348;7.620;2023-05-10T14:01:05;17.00;1.00
6146;DHT22;3104;50.348;7.620;2023-05-10T14:03:31;17.40;1.00
6146;DHT22;3104;50.348;7.620;2023-05-10T14:05:57;17.90;99.90
6146;DHT22;3104;50.348;7.620;2023-05-10T14:08:23;18.00;1.00
6146;DHT22;3104;50.348;7.620;2023-05-10T14:10:49;18.00;99.90
6146;DHT22;3104;50.348;7.620;2023-05-10T14:13:15;18.40;99.90
6146;DHT22;3104;50.348;7.620;2023-05-10T14:15:41;18.30;99.90
6146;DHT22;3104;50.348;7.620;2023-05-10T14:18:07;17.90;69.60
6146;DHT22;3104;50.348;7.620;2023-05-10T14:20:32;18.00;1.00
6146;DHT22;3104;50.348;7.620;2023-05-10T14:22:59;17.90;1.00
6146;DHT22;3104;50.348;7.620;2023-05-10T14:25:25;18.00;1.00
6146;DHT22;3104;50.348;7.620;2023-05-10T14:27:51;18.10;1.00
6146;DHT22;3104;50.348;7.620;2023-05-10T14:30:16;17.60;1.00
6146;DHT22;3104;50.348;7.620;2023-05-10T14:32:42;17.40;99.90
6146;DHT22;3104;50.348;7.620;2023-05-10T14:35:08;17.40;99.90
6146;DHT22;3104;50.348;7.620;2023-05-10T14:37:34;17.50;99.90
6146;DHT22;3104;50.348;7.620;2023-05-10T14:39:59;17.50;99.90
6146;DHT22;3104;50.348;7.620;2023-05-10T14:42:25;17.50;1.00
6146;DHT22;3104;50.348;7.620;2023-05-10T14:44:51;17.50;1.00
6146;DHT22;3104;50.348;7.620;2023-05-10T14:47:16;17.60;99.90
6146;DHT22;3104;50.348;7.620;2023-05-10T14:49:42;17.70;1.00
6146;DHT22;3104;50.348;7.620;2023-05-10T14:52:08;17.80;99.90
6146;DHT22;3104;50.348;7.620;2023-05-10T14:54:33;17.60;1.00
6146;DHT22;3104;50.348;7.620;2023-05-10T14:56:59;17.60;99.90
6146;DHT22;3104;50.348;7.620;2023-05-10T14:59:25;17.40;1.00
6146;DHT22;3104;50.348;7.620;2023-05-10T15:01:51;17.40;99.90
6146;DHT22;3104;50.348;7.620;2023-05-10T15:04:16;17.50;1.00
6146;DHT22;3104;50.348;7.620;2023-05-10T15:06:42;17.40;99.90
6146;DHT22;3104;50.348;7.620;2023-05-10T15:09:07;17.40;1.00
6146;DHT22;3104;50.348;7.620;2023-05-10T15:11:34;17.40;1.00
6146;DHT22;3104;50.348;7.620;2023-05-10T15:14:00;17.50;1.00
6146;DHT22;3104;50.348;7.620;2023-05-10T15:16:26;17.60;1.00
6146;DHT22;3104;50.348;7.620;2023-05-10T15:18:51;17.50;1.00
6146;DHT22;3104;50.348;7.620;2023-05-10T15:21:17;17.70;99.90
6146;DHT22;3104;50.348;7.620;2023-05-10T15:23:42;17.70;99.90
6146;DHT22;3104;50.348;7.620;2023-05-10T15:26:08;17.50;1.00
6146;DHT22;3104;50.348;7.620;2023-05-10T15:28:33;17.30;99.90
6146;DHT22;3104;50.348;7.620;2023-05-10T15:30:59;17.30;1.00
6146;DHT22;3104;50.348;7.620;2023-05-10T15:33:25;17.20;1.00
6146;DHT22;3104;50.348;7.620;2023-05-10T15:35:52;17.20;1.00
6146;DHT22;3104;50.348;7.620;2023-05-10T15:38:19;16.80;1.00
6146;DHT22;3104;50.348;7.620;2023-05-10T15:40:44;16.80;99.90
6146;DHT22;3104;50.348;7.620;2023-05-10T15:43:10;16.90;51.10
6146;DHT22;3104;50.348;7.620;2023-05-10T15:45:35;16.80;99.40
6146;DHT22;3104;50.348;7.620;2023-05-10T15:48:01;17.10;1.00
6146;DHT22;3104;50.348;7.620;2023-05-10T15:50:27;17.20;1.00
6146;DHT22;3104;50.348;7.620;2023-05-10T15:52:53;17.00;99.90
6146;DHT22;3104;50.348;7.620;2023-05-10T15:55:19;16.70;1.00
6146;DHT22;3104;50.348;7.620;2023-05-10T15:57:44;16.40;1.00
6146;DHT22;3104;50.348;7.620;2023-05-10T16:00:11;16.30;99.90
6146;DHT22;3104;50.348;7.620;2023-05-10T16:02:38;16.40;99.90
6146;DHT22;3104;50.348;7.620;2023-05-10T16:05:04;16.40;99.90
6146;DHT22;3104;50.348;7.620;2023-05-10T16:07:29;16.10;99.90
6146;DHT22;3104;50.348;7.620;2023-05-10T16:09:55;16.00;1.00
6146;DHT22;3104;50.348;7.620;2023-05-10T16:12:21;16.10;1.00
6146;DHT22;3104;50.348;7.620;2023-05-10T16:14:47;16.00;21.60
6146;DHT22;3104;50.348;7.620;2023-05-10T16:17:12;16.10;14.80
6146;DHT22;3104;50.348;7.620;2023-05-10T16:19:39;16.00;99.90
6146;DHT22;3104;50.348;7.620;2023-05-10T16:22:05;16.00;1.00
6146;DHT22;3104;50.348;7.620;2023-05-10T16:24:31;16.20;99.90
6146;DHT22;3104;50.348;7.620;2023-05-10T16:26:56;16.40;1.00
6146;DHT22;3104;50.348;7.620;2023-05-10T16:29:22;16.40;1.00
6146;DHT22;3104;50.348;7.620;2023-05-10T16:31:47;16.40;9.90
6146;DHT22;3104;50.348;7.620;2023-05-10T16:34:13;16.80;83.30
6146;DHT22;3104;50.348;7.620;2023-05-10T16:36:39;16.90;1.00
6146;DHT22;3104;50.348;7.620;2023-05-10T16:39:04;16.80;1.00
6146;DHT22;3104;50.348;7.620;2023-05-10T16:41:33;16.70;1.00
6146;DHT22;3104;50.348;7.620;2023-05-10T16:43:59;17.00;1.00